createdAt,value
2016-05-30T00:00:31.685Z,61.28
2016-05-30T00:01:31.672Z,61.47
2016-05-30T00:02:31.658Z,61.47
2016-05-30T00:03:31.646Z,61.38
2016-05-30T00:04:31.649Z,61.57
2016-05-30T00:05:31.620Z,61.57
2016-05-30T00:06:32.529Z,61.67
2016-05-30T00:07:31.594Z,61.67
2016-05-30T00:08:31.424Z,61.67
2016-05-30T00:09:31.568Z,61.57
2016-05-30T00:10:31.571Z,61.86
2016-05-30T00:11:31.558Z,62.05
2016-05-30T00:12:31.545Z,61.77
2016-05-30T00:13:31.516Z,61.96
2016-05-30T00:14:31.504Z,61.47
2016-05-30T00:15:31.490Z,61.47
2016-05-30T00:16:31.478Z,61.57
2016-05-30T00:17:31.481Z,61.77
2016-05-30T00:18:31.467Z,61.77
2016-05-30T00:19:31.439Z,61.86
2016-05-30T00:20:31.442Z,61.47
2016-05-30T00:21:31.959Z,61.67
2016-05-30T00:22:31.400Z,61.38
2016-05-30T00:23:31.387Z,61.86
2016-05-30T00:24:31.389Z,61.38
2016-05-30T00:25:31.361Z,61.67
2016-05-30T00:26:31.379Z,61.86
2016-05-30T00:27:31.382Z,61.86
2016-05-30T00:28:31.323Z,61.67
2016-05-30T00:29:31.309Z,60.89
2016-05-30T00:30:31.297Z,60.51
2016-05-30T00:31:31.283Z,60.03
2016-05-30T00:32:31.271Z,60.8
2016-05-30T00:33:31.257Z,60.61
2016-05-30T00:34:31.088Z,60.13
2016-05-30T00:35:31.388Z,60.22
2016-05-30T00:36:31.407Z,60.1
2016-05-30T00:37:31.222Z,60.22
2016-05-30T00:38:31.208Z,60.19
2016-05-30T00:39:31.179Z,60.1
2016-05-30T00:40:31.183Z,60
2016-05-30T00:41:31.171Z,60.28
2016-05-30T00:42:31.157Z,60.28
2016-05-30T00:43:31.426Z,60
2016-05-30T00:44:31.115Z,59.9
2016-05-30T00:45:31.102Z,60.77
2016-05-30T00:46:31.090Z,61.16
2016-05-30T00:47:31.077Z,62.31
2016-05-30T00:48:31.064Z,62.7
2016-05-30T00:49:31.051Z,62.66
2016-05-30T00:50:31.038Z,62.09
2016-05-30T00:51:31.447Z,61.35
2016-05-30T00:52:30.871Z,61.44
2016-05-30T00:53:30.998Z,61.54
2016-05-30T00:54:30.986Z,60.77
2016-05-30T00:55:30.989Z,60.48
2016-05-30T00:56:30.961Z,60.8
2016-05-30T00:57:30.947Z,60.77
2016-05-30T00:58:30.934Z,60.86
2016-05-30T00:59:31.422Z,60.77
2016-05-30T01:00:30.908Z,60.77
2016-05-30T01:01:30.895Z,60.8
2016-05-30T01:02:30.882Z,60.86
2016-05-30T01:03:30.869Z,60.89
2016-05-30T01:04:30.857Z,60.99
2016-05-30T01:05:30.828Z,60.8
2016-05-30T01:06:31.033Z,60.89
2016-05-30T01:07:31.411Z,61.19
2016-05-30T01:08:30.805Z,60.89
2016-05-30T01:09:30.791Z,61.38
2016-05-30T01:10:30.779Z,61.09
2016-05-30T01:11:30.765Z,61.57
2016-05-30T01:12:30.753Z,61.57
2016-05-30T01:13:30.740Z,61.67
2016-05-30T01:14:30.712Z,61.67
2016-05-30T01:15:30.698Z,61.67
2016-05-30T01:16:30.686Z,61.67
2016-05-30T01:17:30.688Z,61.57
2016-05-30T01:18:30.676Z,61.38
2016-05-30T01:19:30.662Z,61.77
2016-05-30T01:20:30.634Z,61.67
2016-05-30T01:21:30.637Z,61.77
2016-05-30T01:22:30.640Z,61.19
2016-05-30T01:23:31.548Z,61.67
2016-05-30T01:24:30.598Z,61.47
2016-05-30T01:25:30.585Z,61.19
2016-05-30T01:26:30.573Z,61.19
2016-05-30T01:27:30.559Z,61.47
2016-05-30T01:28:30.547Z,61.47
2016-05-30T01:29:30.517Z,61.57
2016-05-30T01:30:30.520Z,61.28
2016-05-30T01:31:30.695Z,61.47
2016-05-30T01:32:30.494Z,61.44
2016-05-30T01:33:30.481Z,61.44
2016-05-30T01:34:30.452Z,61.38
2016-05-30T01:35:30.456Z,61.44
2016-05-30T01:36:30.864Z,61.16
2016-05-30T01:37:30.289Z,61.47
2016-05-30T01:38:30.416Z,60.99
2016-05-30T01:39:30.701Z,61.44
2016-05-30T01:40:30.375Z,61.47
2016-05-30T01:41:30.363Z,61.28
2016-05-30T01:42:30.349Z,61.38
2016-05-30T01:43:30.352Z,61.44
2016-05-30T01:44:30.324Z,61.47
2016-05-30T01:45:30.326Z,61.38
2016-05-30T01:46:30.454Z,61.47
2016-05-30T01:47:30.143Z,61.47
2016-05-30T01:48:30.271Z,61.35
2016-05-30T01:49:30.274Z,61.47
2016-05-30T01:50:30.262Z,61.35
2016-05-30T01:51:30.248Z,61.38
2016-05-30T01:52:30.236Z,61.47
2016-05-30T01:53:30.223Z,61.44
2016-05-30T01:54:30.350Z,61.47
2016-05-30T01:55:30.197Z,61.54
2016-05-30T01:56:30.167Z,61.57
2016-05-30T01:57:30.155Z,61.57
2016-05-30T01:58:29.986Z,61.57
2016-05-30T01:59:30.130Z,61.47
2016-05-30T02:00:30.116Z,61.47
2016-05-30T02:01:30.104Z,61.77
2016-05-30T02:02:30.403Z,61.54
2016-05-30T02:03:30.077Z,61.47
2016-05-30T02:04:30.064Z,61.38
2016-05-30T02:05:30.052Z,61.38
2016-05-30T02:06:30.914Z,61.64
2016-05-30T02:07:30.042Z,61.44
2016-05-30T02:08:29.858Z,61.64
2016-05-30T02:09:29.999Z,61.35
2016-05-30T02:10:30.503Z,61.64
2016-05-30T02:11:29.974Z,61.47
2016-05-30T02:12:29.961Z,61.54
2016-05-30T02:13:29.949Z,61.47
2016-05-30T02:14:29.935Z,61.57
2016-05-30T02:15:29.923Z,61.47
2016-05-30T02:16:29.754Z,61.44
2016-05-30T02:17:29.897Z,61.57
2016-05-30T02:18:30.384Z,61.57
2016-05-30T02:19:29.715Z,61.25
2016-05-30T02:20:29.858Z,61.77
2016-05-30T02:21:29.845Z,61.67
2016-05-30T02:22:29.832Z,61.44
2016-05-30T02:23:29.819Z,61.77
2016-05-30T02:24:29.806Z,61.83
2016-05-30T02:25:29.793Z,61.44
2016-05-30T02:26:30.374Z,61.44
2016-05-30T02:27:29.767Z,61.44
2016-05-30T02:28:29.739Z,62.12
2016-05-30T02:29:29.742Z,62.12
2016-05-30T02:30:29.728Z,61.74
2016-05-30T02:31:29.716Z,62.12
2016-05-30T02:32:29.702Z,62.25
2016-05-30T02:33:29.518Z,62.51
2016-05-30T02:34:29.661Z,62.12
2016-05-30T02:35:29.648Z,61.74
2016-05-30T02:36:29.650Z,62.25
2016-05-30T02:37:29.638Z,62.25
2016-05-30T02:38:29.610Z,61.93
2016-05-30T02:39:29.609Z,61.83
2016-05-30T02:40:29.639Z,62.34
2016-05-30T02:41:29.637Z,62.22
2016-05-30T02:42:30.667Z,61.67
2016-05-30T02:43:29.681Z,62.22
2016-05-30T02:44:29.671Z,62.22
2016-05-30T02:45:29.684Z,62.22
2016-05-30T02:46:29.665Z,62.15
2016-05-30T02:47:29.520Z,62.25
2016-05-30T02:48:29.657Z,62.15
2016-05-30T02:49:29.652Z,62.15
2016-05-30T02:50:29.891Z,62.12
2016-05-30T02:51:29.492Z,62.22
2016-05-30T02:52:29.842Z,62.25
2016-05-30T02:53:29.613Z,62.12
2016-05-30T02:54:29.603Z,62.22
2016-05-30T02:55:29.607Z,62.34
2016-05-30T02:56:29.595Z,62.12
2016-05-30T02:57:29.568Z,62.34
2016-05-30T02:58:29.915Z,62.31
2016-05-30T02:59:29.543Z,61.86
2016-05-30T03:00:29.532Z,62.41
2016-05-30T03:01:29.520Z,62.51
2016-05-30T03:02:29.507Z,62.54
2016-05-30T03:03:29.339Z,61.38
2016-05-30T03:04:29.498Z,61.86
2016-05-30T03:05:29.470Z,62.31
2016-05-30T03:06:29.910Z,61.93
2016-05-30T03:07:29.506Z,62.12
2016-05-30T03:08:29.430Z,62.31
2016-05-30T03:09:29.418Z,62.31
2016-05-30T03:10:29.406Z,61.64
2016-05-30T03:11:29.392Z,61.64
2016-05-30T03:12:29.379Z,62.34
2016-05-30T03:13:29.366Z,62.25
2016-05-30T03:14:29.353Z,62.25
2016-05-30T03:15:29.340Z,62.02
2016-05-30T03:16:29.328Z,62.31
2016-05-30T03:17:29.330Z,62.34
2016-05-30T03:18:29.317Z,62.51
2016-05-30T03:19:29.288Z,62.12
2016-05-30T03:20:29.275Z,62.22
2016-05-30T03:21:30.106Z,62.51
2016-05-30T03:22:29.249Z,62.22
2016-05-30T03:23:29.236Z,62.15
2016-05-30T03:24:29.224Z,62.41
2016-05-30T03:25:29.211Z,62.22
2016-05-30T03:26:29.198Z,62.31
2016-05-30T03:27:29.184Z,62.12
2016-05-30T03:28:29.172Z,62.31
2016-05-30T03:29:29.159Z,61.35
2016-05-30T03:30:29.146Z,62.41
2016-05-30T03:31:29.148Z,62.51
2016-05-30T03:32:29.120Z,62.22
2016-05-30T03:33:29.107Z,61.93
2016-05-30T03:34:29.094Z,62.12
2016-05-30T03:35:29.081Z,61.64
2016-05-30T03:36:29.365Z,61.54
2016-05-30T03:37:29.524Z,62.31
2016-05-30T03:38:29.043Z,61.74
2016-05-30T03:39:29.030Z,61.93
2016-05-30T03:40:29.016Z,61.74
2016-05-30T03:41:29.004Z,62.6
2016-05-30T03:42:28.992Z,61.64
2016-05-30T03:43:28.962Z,61.74
2016-05-30T03:44:28.965Z,62.41
2016-05-30T03:45:28.953Z,61.35
2016-05-30T03:46:28.923Z,62.12
2016-05-30T03:47:28.926Z,62.51
2016-05-30T03:48:28.913Z,61.74
2016-05-30T03:49:28.885Z,61.44
2016-05-30T03:50:28.888Z,62.41
2016-05-30T03:51:29.359Z,62.51
2016-05-30T03:52:29.627Z,62.31
2016-05-30T03:53:28.849Z,61.83
2016-05-30T03:54:28.851Z,61.83
2016-05-30T03:55:28.822Z,62.22
2016-05-30T03:56:28.810Z,61.83
2016-05-30T03:57:28.782Z,61.74
2016-05-30T03:58:28.784Z,62.02
2016-05-30T03:59:28.755Z,62.22
2016-05-30T04:00:28.743Z,62.31
2016-05-30T04:01:28.745Z,62.41
2016-05-30T04:02:28.716Z,62.22
2016-05-30T04:03:28.718Z,62.22
2016-05-30T04:04:28.691Z,62.41
2016-05-30T04:05:28.678Z,62.31
2016-05-30T04:06:28.524Z,62.22
2016-05-30T04:07:28.651Z,62.31
2016-05-30T04:08:28.639Z,62.41
2016-05-30T04:09:28.626Z,62.31
2016-05-30T04:10:28.613Z,62.12
2016-05-30T04:11:28.601Z,62.41
2016-05-30T04:12:28.587Z,62.6
2016-05-30T04:13:28.574Z,62.41
2016-05-30T04:14:28.578Z,62.22
2016-05-30T04:15:28.548Z,62.31
2016-05-30T04:16:28.536Z,62.22
2016-05-30T04:17:28.523Z,62.41
2016-05-30T04:18:28.509Z,62.22
2016-05-30T04:19:28.497Z,62.02
2016-05-30T04:20:28.484Z,62.02
2016-05-30T04:21:29.236Z,62.6
2016-05-30T04:22:28.474Z,62.31
2016-05-30T04:23:28.445Z,61.64
2016-05-30T04:24:28.432Z,62.22
2016-05-30T04:25:28.419Z,62.12
2016-05-30T04:26:28.405Z,62.22
2016-05-30T04:27:28.393Z,62.12
2016-05-30T04:28:28.380Z,62.22
2016-05-30T04:29:28.210Z,61.93
2016-05-30T04:30:28.354Z,62.12
2016-05-30T04:31:28.341Z,62.41
2016-05-30T04:32:28.329Z,62.51
2016-05-30T04:33:28.315Z,62.31
2016-05-30T04:34:28.302Z,62.7
2016-05-30T04:35:28.289Z,62.22
2016-05-30T04:36:28.651Z,62.6
2016-05-30T04:37:28.124Z,62.12
2016-05-30T04:38:28.251Z,62.89
2016-05-30T04:39:28.237Z,61.93
2016-05-30T04:40:28.209Z,62.51
2016-05-30T04:41:28.212Z,62.79
2016-05-30T04:42:28.198Z,62.51
2016-05-30T04:43:28.187Z,62.6
2016-05-30T04:44:28.173Z,62.31
2016-05-30T04:45:28.160Z,62.12
2016-05-30T04:46:28.148Z,62.41
2016-05-30T04:47:28.134Z,62.22
2016-05-30T04:48:28.122Z,62.79
2016-05-30T04:49:28.109Z,62.41
2016-05-30T04:50:28.095Z,62.22
2016-05-30T04:51:28.083Z,62.02
2016-05-30T04:52:27.992Z,62.79
2016-05-30T04:53:28.057Z,62.12
2016-05-30T04:54:28.028Z,62.6
2016-05-30T04:55:28.031Z,62.6
2016-05-30T04:56:28.002Z,62.6
2016-05-30T04:57:28.005Z,62.31
2016-05-30T04:58:27.992Z,62.22
2016-05-30T04:59:27.979Z,62.41
2016-05-30T05:00:27.951Z,62.41
2016-05-30T05:01:27.954Z,62.31
2016-05-30T05:02:27.940Z,62.31
2016-05-30T05:03:27.771Z,62.41
2016-05-30T05:04:27.758Z,62.22
2016-05-30T05:05:27.901Z,62.31
2016-05-30T05:06:28.170Z,62.22
2016-05-30T05:07:27.798Z,61.74
2016-05-30T05:08:27.847Z,62.41
2016-05-30T05:09:27.834Z,62.12
2016-05-30T05:10:27.837Z,62.41
2016-05-30T05:11:27.808Z,62.41
2016-05-30T05:12:27.795Z,62.41
2016-05-30T05:13:27.782Z,62.31
2016-05-30T05:14:27.941Z,62.31
2016-05-30T05:15:27.756Z,62.41
2016-05-30T05:16:27.744Z,62.41
2016-05-30T05:17:27.731Z,62.6
2016-05-30T05:18:27.717Z,62.41
2016-05-30T05:19:27.705Z,62.41
2016-05-30T05:20:27.692Z,62.31
2016-05-30T05:21:27.679Z,62.31
2016-05-30T05:22:27.886Z,62.41
2016-05-30T05:23:27.653Z,62.31
2016-05-30T05:24:27.656Z,62.6
2016-05-30T05:25:27.643Z,62.02
2016-05-30T05:26:27.614Z,62.02
2016-05-30T05:27:27.602Z,62.41
2016-05-30T05:28:27.589Z,62.6
2016-05-30T05:29:27.591Z,62.6
2016-05-30T05:30:27.952Z,61.83
2016-05-30T05:31:27.550Z,62.41
2016-05-30T05:32:27.537Z,62.51
2016-05-30T05:33:27.524Z,62.7
2016-05-30T05:34:27.510Z,62.51
2016-05-30T05:35:27.498Z,62.51
2016-05-30T05:36:28.157Z,61.83
2016-05-30T05:37:27.331Z,62.7
2016-05-30T05:38:28.053Z,62.41
2016-05-30T05:39:27.446Z,62.51
2016-05-30T05:40:27.433Z,62.02
2016-05-30T05:41:27.421Z,62.6
2016-05-30T05:42:27.423Z,62.31
2016-05-30T05:43:27.238Z,62.41
2016-05-30T05:44:27.381Z,62.12
2016-05-30T05:45:27.368Z,61.64
2016-05-30T05:46:27.949Z,62.31
2016-05-30T05:47:27.328Z,62.51
2016-05-30T05:48:27.330Z,62.22
2016-05-30T05:49:27.301Z,62.12
2016-05-30T05:50:27.304Z,62.51
2016-05-30T05:51:27.588Z,62.6
2016-05-30T05:52:27.121Z,61.64
2016-05-30T05:53:27.264Z,62.22
2016-05-30T05:54:28.097Z,61.83
2016-05-30T05:55:27.224Z,62.22
2016-05-30T05:56:27.211Z,62.12
2016-05-30T05:57:27.213Z,62.31
2016-05-30T05:58:27.028Z,62.22
2016-05-30T05:59:27.172Z,62.12
2016-05-30T06:00:27.003Z,61.64
2016-05-30T06:01:26.990Z,62.22
2016-05-30T06:02:27.227Z,62.12
2016-05-30T06:03:27.136Z,62.31
2016-05-30T06:04:27.123Z,61.54
2016-05-30T06:05:27.094Z,62.09
2016-05-30T06:06:27.347Z,62.48
2016-05-30T06:07:27.131Z,62.41
2016-05-30T06:08:27.055Z,62.12
2016-05-30T06:09:27.043Z,61.64
2016-05-30T06:10:27.232Z,61.93
2016-05-30T06:11:27.017Z,62.22
2016-05-30T06:12:27.004Z,62.41
2016-05-30T06:13:26.990Z,61.74
2016-05-30T06:14:26.821Z,62.6
2016-05-30T06:15:26.965Z,62.31
2016-05-30T06:16:26.951Z,62.48
2016-05-30T06:17:26.939Z,62.41
2016-05-30T06:18:27.270Z,61.93
2016-05-30T06:19:26.913Z,62.7
2016-05-30T06:20:26.900Z,62.22
2016-05-30T06:21:26.887Z,61.74
2016-05-30T06:22:27.467Z,62.22
2016-05-30T06:23:26.861Z,62.22
2016-05-30T06:24:26.833Z,62.02
2016-05-30T06:25:26.882Z,62.41
2016-05-30T06:26:27.260Z,62.57
2016-05-30T06:27:26.810Z,62.31
2016-05-30T06:28:26.780Z,62.6
2016-05-30T06:29:26.768Z,61.64
2016-05-30T06:30:26.755Z,62.48
2016-05-30T06:31:26.741Z,62.51
2016-05-30T06:32:26.573Z,61.83
2016-05-30T06:33:26.872Z,62.41
2016-05-30T06:34:26.704Z,62.31
2016-05-30T06:35:26.691Z,62.22
2016-05-30T06:36:26.787Z,62.51
2016-05-30T06:37:26.696Z,62.6
2016-05-30T06:38:26.651Z,62.12
2016-05-30T06:39:26.638Z,62.51
2016-05-30T06:40:26.485Z,62.51
2016-05-30T06:41:27.003Z,62.02
2016-05-30T06:42:26.601Z,62.48
2016-05-30T06:43:26.587Z,62.57
2016-05-30T06:44:26.574Z,61.8
2016-05-30T06:45:26.561Z,62.51
2016-05-30T06:46:26.548Z,62.48
2016-05-30T06:47:26.535Z,61.99
2016-05-30T06:48:26.522Z,62.12
2016-05-30T06:49:26.901Z,62.7
2016-05-30T06:50:26.497Z,62.41
2016-05-30T06:51:26.702Z,61.74
2016-05-30T06:52:26.471Z,61.54
2016-05-30T06:53:26.458Z,62.12
2016-05-30T06:54:26.522Z,62.31
2016-05-30T06:55:26.432Z,62.12
2016-05-30T06:56:26.419Z,62.12
2016-05-30T06:57:26.953Z,62.31
2016-05-30T06:58:26.909Z,62.12
2016-05-30T06:59:26.380Z,62.18
2016-05-30T07:00:26.367Z,61.8
2016-05-30T07:01:26.354Z,62.28
2016-05-30T07:02:26.325Z,62.22
2016-05-30T07:03:26.313Z,61.83
2016-05-30T07:04:26.300Z,61.74
2016-05-30T07:05:26.897Z,62.31
2016-05-30T07:06:26.493Z,62.28
2016-05-30T07:07:26.699Z,62.22
2016-05-30T07:08:26.248Z,61.8
2016-05-30T07:09:26.235Z,62.22
2016-05-30T07:10:26.221Z,62.22
2016-05-30T07:11:26.225Z,62.22
2016-05-30T07:12:26.196Z,62.18
2016-05-30T07:13:26.198Z,62.31
2016-05-30T07:14:26.187Z,62.51
2016-05-30T07:15:26.017Z,62.12
2016-05-30T07:16:26.145Z,62.86
2016-05-30T07:17:25.976Z,63.92
2016-05-30T07:18:26.119Z,64.69
2016-05-30T07:19:25.950Z,64.76
2016-05-30T07:20:25.937Z,65.14
2016-05-30T07:21:26.205Z,65.63
2016-05-30T07:22:26.067Z,65.05
2016-05-30T07:23:26.054Z,65.72
2016-05-30T07:24:26.041Z,65.81
2016-05-30T07:25:26.028Z,65.43
2016-05-30T07:26:26.015Z,65.53
2016-05-30T07:27:26.003Z,66.3
2016-05-30T07:28:25.989Z,66.11
2016-05-30T07:29:26.180Z,65.91
2016-05-30T07:30:25.964Z,66.39
2016-05-30T07:31:25.950Z,66.39
2016-05-30T07:32:25.938Z,66.39
2016-05-30T07:33:25.924Z,66.3
2016-05-30T07:34:25.911Z,66.59
2016-05-30T07:35:25.899Z,66.59
2016-05-30T07:36:25.902Z,66.59
2016-05-30T07:37:26.169Z,66.39
2016-05-30T07:38:25.844Z,66.69
2016-05-30T07:39:25.846Z,66.59
2016-05-30T07:40:25.835Z,66.39
2016-05-30T07:41:25.837Z,66.49
2016-05-30T07:42:25.793Z,66.97
2016-05-30T07:43:25.779Z,66.97
2016-05-30T07:44:25.768Z,67.74
2016-05-30T07:45:27.113Z,67.74
2016-05-30T07:46:25.740Z,67.71
2016-05-30T07:47:25.728Z,67.61
2016-05-30T07:48:25.715Z,67.81
2016-05-30T07:49:25.702Z,67.55
2016-05-30T07:50:25.689Z,67.55
2016-05-30T07:51:26.223Z,67.84
2016-05-30T07:52:25.616Z,68
2016-05-30T07:53:25.650Z,67.9
2016-05-30T07:54:25.622Z,67.9
2016-05-30T07:55:25.468Z,67.61
2016-05-30T07:56:25.596Z,67.84
2016-05-30T07:57:25.583Z,67.36
2016-05-30T07:58:25.570Z,67.74
2016-05-30T07:59:25.557Z,67.94
2016-05-30T08:00:25.388Z,67.94
2016-05-30T08:01:25.531Z,68.13
2016-05-30T08:02:25.534Z,68.68
2016-05-30T08:03:25.505Z,68.29
2016-05-30T08:04:25.492Z,68.58
2016-05-30T08:05:25.480Z,68.19
2016-05-30T08:06:25.622Z,67.74
2016-05-30T08:07:25.610Z,67.84
2016-05-30T08:08:25.441Z,68.13
2016-05-30T08:09:25.428Z,67.71
2016-05-30T08:10:25.415Z,67.81
2016-05-30T08:11:25.402Z,68.13
2016-05-30T08:12:25.388Z,68.32
2016-05-30T08:13:25.376Z,67.74
2016-05-30T08:14:25.348Z,67.84
2016-05-30T08:15:25.351Z,67.55
2016-05-30T08:16:25.322Z,67.94
2016-05-30T08:17:25.324Z,67.65
2016-05-30T08:18:25.296Z,68.13
2016-05-30T08:19:25.282Z,68.23
2016-05-30T08:20:25.270Z,67.65
2016-05-30T08:21:25.257Z,67.94
2016-05-30T08:22:25.245Z,67.84
2016-05-30T08:23:25.248Z,67.74
2016-05-30T08:24:25.217Z,68.04
2016-05-30T08:25:25.205Z,68.13
2016-05-30T08:26:25.192Z,68.58
2016-05-30T08:27:25.179Z,68.61
2016-05-30T08:28:25.167Z,68.04
2016-05-30T08:29:25.153Z,68.23
2016-05-30T08:30:24.984Z,68.32
2016-05-30T08:31:25.127Z,68.42
2016-05-30T08:32:25.114Z,68.61
2016-05-30T08:33:25.086Z,68.52
2016-05-30T08:34:25.089Z,68.32
2016-05-30T08:35:25.060Z,67.84
2016-05-30T08:36:25.063Z,67.84
2016-05-30T08:37:25.050Z,68.71
2016-05-30T08:38:25.021Z,67.65
2016-05-30T08:39:25.024Z,67.46
2016-05-30T08:40:24.996Z,67.84
2016-05-30T08:41:24.999Z,67.94
2016-05-30T08:42:24.830Z,67.74
2016-05-30T08:43:24.956Z,67.74
2016-05-30T08:44:24.944Z,67.84
2016-05-30T08:45:24.946Z,67.94
2016-05-30T08:46:24.918Z,68.52
2016-05-30T08:47:24.904Z,68.52
2016-05-30T08:48:24.892Z,68.32
2016-05-30T08:49:24.895Z,68.13
2016-05-30T08:50:24.866Z,67.84
2016-05-30T08:51:24.698Z,67.94
2016-05-30T08:52:24.840Z,67.84
2016-05-30T08:53:24.842Z,68.13
2016-05-30T08:54:24.814Z,68.13
2016-05-30T08:55:24.786Z,67.65
2016-05-30T08:56:24.773Z,67.65
2016-05-30T08:57:24.792Z,67.74
2016-05-30T08:58:24.763Z,67.36
2016-05-30T08:59:24.750Z,67.74
2016-05-30T09:00:24.721Z,66.78
2016-05-30T09:01:24.708Z,66.78
2016-05-30T09:02:24.695Z,67.2
2016-05-30T09:03:24.526Z,66.97
2016-05-30T09:04:24.670Z,67.65
2016-05-30T09:05:24.656Z,66.88
2016-05-30T09:06:24.503Z,66.59
2016-05-30T09:07:24.646Z,66.14
2016-05-30T09:08:24.619Z,66.33
2016-05-30T09:09:24.605Z,66.04
2016-05-30T09:10:24.591Z,66.04
2016-05-30T09:11:24.563Z,66.14
2016-05-30T09:12:24.550Z,65.47
2016-05-30T09:13:24.553Z,65.47
2016-05-30T09:14:24.524Z,65.75
2016-05-30T09:15:24.527Z,65.47
2016-05-30T09:16:24.514Z,65.56
2016-05-30T09:17:24.501Z,65.85
2016-05-30T09:18:24.488Z,65.56
2016-05-30T09:19:24.460Z,65.59
2016-05-30T09:20:24.447Z,65.17
2016-05-30T09:21:24.293Z,65.11
2016-05-30T09:22:24.468Z,64.89
2016-05-30T09:23:24.408Z,65.3
2016-05-30T09:24:24.395Z,65.88
2016-05-30T09:25:24.382Z,65.66
2016-05-30T09:26:24.370Z,64.79
2016-05-30T09:27:24.356Z,65.01
2016-05-30T09:28:24.358Z,64.92
2016-05-30T09:29:24.331Z,64.72
2016-05-30T09:30:24.317Z,65.01
2016-05-30T09:31:24.133Z,65.5
2016-05-30T09:32:24.292Z,66.46
2016-05-30T09:33:24.123Z,66.91
2016-05-30T09:34:24.250Z,67.1
2016-05-30T09:35:24.253Z,67.68
2016-05-30T09:36:24.239Z,68.71
2016-05-30T09:37:24.212Z,70.09
2016-05-30T09:38:24.199Z,69.19
2016-05-30T09:39:24.185Z,69.51
2016-05-30T09:40:24.172Z,69.87
2016-05-30T09:41:24.160Z,70.64
2016-05-30T09:42:24.162Z,69.57
2016-05-30T09:43:24.134Z,70.54
2016-05-30T09:44:24.121Z,68.93
2016-05-30T09:45:24.217Z,68.65
2016-05-30T09:46:24.096Z,68.16
2016-05-30T09:47:24.082Z,67.4
2016-05-30T09:48:24.068Z,66.75
2016-05-30T09:49:24.057Z,66.36
2016-05-30T09:50:24.043Z,66.17
2016-05-30T09:51:23.874Z,66.08
2016-05-30T09:52:24.236Z,65.88
2016-05-30T09:53:24.207Z,65.69
2016-05-30T09:54:23.819Z,65.4
2016-05-30T09:55:23.962Z,65.4
2016-05-30T09:56:23.950Z,65.4
2016-05-30T09:57:23.937Z,65.2
2016-05-30T09:58:23.939Z,64.92
2016-05-30T09:59:23.911Z,65.4
2016-05-30T10:00:23.898Z,65.5
2016-05-30T10:01:24.182Z,65.4
2016-05-30T10:02:23.716Z,65.2
2016-05-30T10:03:23.859Z,65.11
2016-05-30T10:04:23.847Z,64.82
2016-05-30T10:05:23.850Z,64.53
2016-05-30T10:06:24.586Z,64.82
2016-05-30T10:07:23.652Z,64.82
2016-05-30T10:08:23.998Z,64.43
2016-05-30T10:09:23.626Z,64.15
2016-05-30T10:10:23.769Z,64.53
2016-05-30T10:11:23.756Z,64.43
2016-05-30T10:12:23.728Z,64.43
2016-05-30T10:13:23.730Z,63.76
2016-05-30T10:14:23.702Z,64.53
2016-05-30T10:15:23.689Z,63.4
2016-05-30T10:16:24.129Z,63.95
2016-05-30T10:17:23.679Z,63.37
2016-05-30T10:18:23.665Z,63.67
2016-05-30T10:19:23.652Z,63.98
2016-05-30T10:20:23.640Z,63.4
2016-05-30T10:21:23.626Z,63.28
2016-05-30T10:22:23.457Z,63.6
2016-05-30T10:23:23.585Z,62.99
2016-05-30T10:24:24.119Z,63.5
2016-05-30T10:25:23.575Z,63.4
2016-05-30T10:26:23.546Z,62.92
2016-05-30T10:27:23.534Z,63.02
2016-05-30T10:28:23.520Z,62.82
2016-05-30T10:29:23.507Z,62.7
2016-05-30T10:30:23.495Z,62.92
2016-05-30T10:31:23.325Z,62.34
2016-05-30T10:32:24.125Z,62.44
2016-05-30T10:33:23.456Z,62.73
2016-05-30T10:34:23.442Z,62.63
2016-05-30T10:35:23.430Z,62.63
2016-05-30T10:36:23.776Z,62.54
2016-05-30T10:37:23.451Z,62.73
2016-05-30T10:38:23.391Z,62.34
2016-05-30T10:39:23.378Z,63.31
2016-05-30T10:40:26.599Z,62.82
2016-05-30T10:41:23.337Z,62.34
2016-05-30T10:42:23.339Z,62.54
2016-05-30T10:43:23.170Z,62.44
2016-05-30T10:44:23.314Z,62.25
2016-05-30T10:45:23.300Z,62.63
2016-05-30T10:46:23.271Z,62.54
2016-05-30T10:47:23.275Z,61.86
2016-05-30T10:48:23.246Z,62.63
2016-05-30T10:49:23.232Z,62.73
2016-05-30T10:50:23.220Z,62.63
2016-05-30T10:51:23.067Z,62.44
2016-05-30T10:52:23.444Z,62.05
2016-05-30T10:53:23.197Z,62.25
2016-05-30T10:54:23.185Z,62.15
2016-05-30T10:55:23.171Z,62.34
2016-05-30T10:56:23.237Z,62.15
2016-05-30T10:57:23.146Z,61.96
2016-05-30T10:58:22.960Z,61.96
2016-05-30T10:59:22.948Z,62.34
2016-05-30T11:00:23.090Z,61.86
2016-05-30T11:01:23.078Z,62.05
2016-05-30T11:02:22.909Z,62.34
2016-05-30T11:03:22.895Z,62.15
2016-05-30T11:04:23.289Z,62.05
2016-05-30T11:05:22.870Z,62.15
2016-05-30T11:06:23.122Z,62.15
2016-05-30T11:07:23.406Z,62.15
2016-05-30T11:08:22.987Z,62.25
2016-05-30T11:09:22.989Z,62.15
2016-05-30T11:10:22.961Z,61.96
2016-05-30T11:11:22.792Z,61.86
2016-05-30T11:12:23.280Z,62.05
2016-05-30T11:13:22.922Z,62.15
2016-05-30T11:14:22.910Z,62.05
2016-05-30T11:15:22.897Z,62.15
2016-05-30T11:16:22.883Z,61.77
2016-05-30T11:17:22.855Z,61.77
2016-05-30T11:18:22.843Z,61.96
2016-05-30T11:19:22.861Z,62.15
2016-05-30T11:20:23.285Z,62.05
2016-05-30T11:21:23.022Z,61.86
2016-05-30T11:22:23.479Z,62.25
2016-05-30T11:23:22.794Z,61.86
2016-05-30T11:24:22.624Z,62.34
2016-05-30T11:25:22.768Z,62.54
2016-05-30T11:26:22.598Z,62.54
2016-05-30T11:27:22.726Z,61.57
2016-05-30T11:28:22.572Z,62.22
2016-05-30T11:29:22.701Z,62.22
2016-05-30T11:30:22.703Z,61.83
2016-05-30T11:31:22.690Z,62.15
2016-05-30T11:32:22.676Z,61.57
2016-05-30T11:33:22.664Z,62.34
2016-05-30T11:34:22.651Z,61.54
2016-05-30T11:35:22.639Z,62.34
2016-05-30T11:36:23.547Z,62.34
2016-05-30T11:37:22.769Z,62.6
2016-05-30T11:38:22.442Z,62.25
2016-05-30T11:39:22.415Z,62.25
2016-05-30T11:40:22.402Z,61.96
2016-05-30T11:41:22.544Z,62.25
2016-05-30T11:42:22.375Z,62.34
2016-05-30T11:43:22.535Z,62.15
2016-05-30T11:44:23.366Z,62.34
2016-05-30T11:45:22.508Z,62.25
2016-05-30T11:46:22.516Z,62.44
2016-05-30T11:47:22.523Z,62.54
2016-05-30T11:48:22.546Z,62.15
2016-05-30T11:49:22.553Z,62.25
2016-05-30T11:50:22.551Z,62.05
2016-05-30T11:51:22.546Z,62.34
2016-05-30T11:52:23.806Z,62.44
2016-05-30T11:53:22.362Z,62.34
2016-05-30T11:54:22.544Z,61.38
2016-05-30T11:55:22.519Z,62.82
2016-05-30T11:56:22.587Z,62.15
2016-05-30T11:57:22.483Z,62.34
2016-05-30T11:58:22.488Z,63.31
2016-05-30T11:59:22.307Z,63.5
2016-05-30T12:00:23.498Z,62.63
2016-05-30T12:01:22.268Z,62.44
2016-05-30T12:02:22.428Z,63.21
2016-05-30T12:03:22.416Z,62.63
2016-05-30T12:04:22.404Z,62.82
2016-05-30T12:05:22.392Z,62.92
2016-05-30T12:06:22.380Z,62.54
2016-05-30T12:07:22.758Z,62.63
2016-05-30T12:08:22.807Z,62.31
2016-05-30T12:09:22.342Z,62.15
2016-05-30T12:10:22.329Z,62.25
2016-05-30T12:11:22.160Z,62.15
2016-05-30T12:12:22.303Z,62.25
2016-05-30T12:13:22.290Z,62.54
2016-05-30T12:14:22.277Z,62.25
2016-05-30T12:15:22.561Z,62.15
2016-05-30T12:16:22.251Z,61.96
2016-05-30T12:17:22.254Z,61.57
2016-05-30T12:18:22.226Z,61.57
2016-05-30T12:19:22.212Z,61.57
2016-05-30T12:20:22.184Z,61.47
2016-05-30T12:21:22.172Z,61.77
2016-05-30T12:22:22.580Z,61.57
2016-05-30T12:23:22.567Z,62.15
2016-05-30T12:24:21.976Z,62.15
2016-05-30T12:25:22.119Z,61.86
2016-05-30T12:26:22.122Z,62.15
2016-05-30T12:27:22.109Z,61.67
2016-05-30T12:28:22.096Z,61.57
2016-05-30T12:29:22.083Z,61.38
2016-05-30T12:30:21.899Z,61.67
2016-05-30T12:31:22.589Z,61.67
2016-05-30T12:32:22.029Z,61.86
2016-05-30T12:33:22.032Z,61.09
2016-05-30T12:34:22.002Z,61.28
2016-05-30T12:35:22.021Z,61.38
2016-05-30T12:36:21.993Z,61.38
2016-05-30T12:37:22.136Z,61.67
2016-05-30T12:38:21.951Z,61.57
2016-05-30T12:39:22.548Z,62.05
2016-05-30T12:40:21.941Z,62.25
2016-05-30T12:41:21.928Z,61.86
2016-05-30T12:42:21.899Z,61.57
2016-05-30T12:43:21.887Z,62.15
2016-05-30T12:44:21.890Z,61.57
2016-05-30T12:45:21.876Z,61.67
2016-05-30T12:46:21.864Z,61.47
2016-05-30T12:47:22.537Z,61.57
2016-05-30T12:48:21.823Z,61.57
2016-05-30T12:49:21.825Z,61.86
2016-05-30T12:50:21.796Z,61.47
2016-05-30T12:51:21.783Z,61.96
2016-05-30T12:52:22.051Z,61.96
2016-05-30T12:53:21.758Z,61.38
2016-05-30T12:54:21.744Z,61.47